AirNav   BOSE A20 Aviation Headset
 
 1605 users online  

5NC3 Reed Mine Airport
Locust, North Carolina, USA

GOING TO LOCUST?


FAA INFORMATION EFFECTIVE 26 APRIL 2018

Location

FAA Identifier: 5NC3
Lat/Long: 35-17-57.7900N / 080-27-28.2000W
35-17.963167N / 080-27.470000W
35.2993861 / -80.4578333
(estimated)
Elevation: 581 ft. / 177 m (estimated)
From city: 3 miles NNW of LOCUST, NC
Time zone: UTC +0 (year round; does not observe DST)
Zip code: 28097

Airport Operations

Airport use: Private use. Permission required prior to landing
Activation date: 01/2018
Control tower: no
ARTCC: ATLANTA CENTER
FSS: RALEIGH FLIGHT SERVICE STATION
Attendance: 
Segmented circle: no

Airport Communications

WX AWOS-3 at JQF (13 nm NW): 133.675 (704-785-2145)
WX AWOS-3 at VUJ (17 nm NE): 128.175 (704-986-2097)
WX ASOS at EQY (19 nm SW): 135.775 (704-283-5185)

Nearby radio navigation aids

VOR radial/distance  VOR name  Freq  Var
CLTr080/25.1CHARLOTTE VOR/DME115.0005W
CTFr350/40.0CHESTERFIELD VOR/DME108.2003W

 
NDB name  Hdg/Dist  Freq  Var  ID
PAGELAND358/33.827008WPYG .--. -.-- --.
LINCOLNTON121/33.943206WIZN .. --.. -.
STONIA085/34.926006WGHJ --. .... .---
LANCASTER037/39.840007WLKR .-.. -.- .-.

Airport Services

Runway Information

Runway 3/21

Dimensions: 2000 x 75 ft. / 610 x 23 m
Surface: turf, in fair condition
RUNWAY 3  RUNWAY 21
Traffic pattern: leftleft

Airport Ownership and Management from official FAA records

Ownership: Privately-owned
Owner: CHRISTOPHER LOGAN
9659 WIDESPREAD AVE NW
CONCORD, NC 28027
Phone 704-773-1676
Manager: CHRISTOPHER LOGAN
9659 WIDESPREAD AVE NW
CONCORD, NC 28027
Phone 704-773-1676

Instrument Procedures

There are no published instrument procedures at 5NC3.

Some nearby airports with instrument procedures:

KJQF - Concord Regional Airport (13 nm NW)
KVUJ - Stanly County Airport (17 nm NE)
KEQY - Charlotte-Monroe Executive Airport (19 nm SW)
KRUQ - Mid-Carolina Regional Airport (21 nm N)
KCLT - Charlotte/Douglas International Airport (25 nm W)
 
Loc | Ops | Rwys | IFR | FBO | Links
Com | Nav | Svcs | Stats | Notes

AirNav Hotels Sweepstakes
 
Aerial photo
No photo
 
Airport distance calculator
Flying to Reed Mine Airport? Find the distance to fly.

From to 5NC3

Sunrise and sunset
Times for 21-May-2018
 Local
(UTC-4)
 Zulu
(UTC)
Morning civil twilight05:4609:46
Sunrise06:1410:14
Sunset20:2200:22
Evening civil twilight20:5100:51

Current date and time
Zulu (UTC)  21-May-2018 19:06:18
Local (UTC-4)  21-May-2018 15:06:18
 
METAR
KJQF 
14nm W 
211850Z 00000KT 10SM CLR 28/16 A3016
KVUJ 
17nm NE 
211850Z AUTO 22006KT 10SM CLR 30/20 A3016 RMK AO2 LTG DSNT W AND NW T02960200
KEQY 
19nm SW 
211853Z AUTO 10SM CLR 29/19 A3012 RMK AO2 SLP199 T02940189
KRUQ 
21nm N 
211845Z AUTO 25003KT 10SM CLR 26/21 A3013 RMK AO2 T02620208
KCLT 
25nm W 
211852Z 26005KT 10SM FEW040 BKN110 BKN250 29/17 A3013 RMK AO2 SLP196 T02940167
KAFP 
25nm SE 
211835Z AUTO 18007KT 10SM SCT050 28/19 A3012 RMK AO2 T02840186
TAF
KCLT 
25nm W 
211739Z 2118/2224 22005KT P6SM VCSH SCT045 BKN150 FM220900 21003KT P6SM SCT110 FM221600 21007KT P6SM SCT040 BKN060 PROB30 2218/2224 3SM TSRA BKN040CB
NOTAMs
Click for the latest NOTAMs
NOTAMs are issued by the DoD/FAA and will open in a separate window not controlled by AirNav.

 

 
 

Would you like to see your business listed on this page?

 If your business provides an interesting product or service to pilots, flight crews, aircraft, or users of the Reed Mine Airport, you should consider listing it here.  To start the listing process, click on the button below
 
Add a business
 

Other Pages about Reed Mine Airport

Update a link
 
Copyright © AirNav, LLC. All rights reserved. Privacy Policy  Contact